Time;durP1;ratioP1;P1;durP2;ratioP2;P2;SDS_P1;SDS_P2;PMS_P1;PMS_P2;Temp;Humidity;BMP_temperature;BMP_pressure;BME280_temperature;BME280_humidity;BME280_pressure;Samples;Min_cycle;Max_cycle;Signal;HPM_P1;HPM_P2
2022/04/09 00:00:42;;;;;;;3.45;1.80;;;;;;;6.95;80.02;97525.97;4974240;28;20456;-76
2022/04/09 00:03:08;;;;;;;4.20;1.83;;;;;;;6.93;80.42;97532.91;4974330;28;20405;-76
2022/04/09 00:05:34;;;;;;;3.10;1.95;;;;;;;6.85;80.48;97529.66;4957116;28;20078;-76
2022/04/09 00:07:59;;;;;;;2.35;1.52;;;;;;;6.83;80.97;97521.97;4973968;28;20154;-77
2022/04/09 00:10:26;;;;;;;;;;;;;;;6.95;81.07;97546.59;4974508;28;20097;-77
2022/04/09 00:12:51;;;;;;;3.00;1.80;;;;;;;6.92;80.61;97546.69;4972875;28;19953;-76
2022/04/09 00:15:17;;;;;;;4.88;1.90;;;;;;;6.87;81.02;97548.47;4956758;28;20073;-76
2022/04/09 00:17:44;;;;;;;3.20;1.80;;;;;;;6.84;81.21;97554.56;4973583;28;20042;-76
2022/04/09 00:20:11;;;;;;;3.38;2.00;;;;;;;6.91;81.52;97564.72;4973596;28;20071;-76
2022/04/09 00:22:38;;;;;;;2.80;1.70;;;;;;;7.03;81.11;97573.03;4973926;28;20129;-75
2022/04/09 00:25:10;;;;;;;3.33;1.98;;;;;;;6.97;80.68;97565.47;4973648;28;20038;-75
2022/04/09 00:27:36;;;;;;;2.65;1.73;;;;;;;7.03;80.93;97575.63;4972654;28;20130;-75
2022/04/09 00:30:06;;;;;;;3.85;2.00;;;;;;;7.19;79.83;97581.25;4972329;28;20023;-76
2022/04/09 00:32:33;;;;;;;2.90;1.90;;;;;;;7.15;79.28;97584.81;4973421;28;20406;-76
2022/04/09 00:34:58;;;;;;;3.53;1.80;;;;;;;7.11;79.01;97584.03;4973836;28;20039;-76
2022/04/09 00:37:24;;;;;;;2.90;1.95;;;;;;;7.16;79.99;97586.50;4973927;28;20493;-76
2022/04/09 00:39:50;;;;;;;4.03;2.10;;;;;;;7.16;79.58;97583.91;4974185;28;20595;-76
2022/04/09 00:42:18;;;;;;;3.40;2.08;;;;;;;7.10;79.36;97597.81;4972051;28;20097;-76
2022/04/09 00:44:44;;;;;;;4.50;2.40;;;;;;;7.14;79.50;97619.19;4972771;28;20043;-76
2022/04/09 00:47:10;;;;;;;3.83;2.65;;;;;;;7.14;78.60;97611.44;4942794;28;20043;-76
2022/04/09 00:49:36;;;;;;;3.35;2.00;;;;;;;7.20;78.80;97607.91;4956391;28;20383;-76
2022/04/09 00:52:03;;;;;;;4.25;2.72;;;;;;;7.19;78.27;97608.75;4973552;28;20077;-76
2022/04/09 00:54:29;;;;;;;5.50;2.70;;;;;;;7.13;77.97;97610.59;4968198;28;20035;-76
2022/04/09 00:56:59;;;;;;;3.92;2.33;;;;;;;7.21;78.23;97619.91;4972390;28;20035;-76
2022/04/09 00:59:24;;;;;;;3.60;2.45;;;;;;;7.19;77.82;97612.19;4956906;28;20038;-76
2022/04/09 01:01:50;;;;;;;3.50;2.30;;;;;;;7.27;78.00;97624.91;4942291;29;20422;-75
2022/04/09 01:04:16;;;;;;;;;;;;;;;7.31;77.26;97626.53;4953468;28;20046;-76
2022/04/09 01:06:42;;;;;;;3.13;2.42;;;;;;;7.09;77.85;97626.19;4981932;28;19918;-76
2022/04/09 01:09:08;;;;;;;5.50;2.83;;;;;;;7.04;78.19;97633.16;4965981;28;20034;-75
2022/04/09 01:11:33;;;;;;;5.13;2.35;;;;;;;6.99;78.60;97635.00;4971813;28;20478;-76
2022/04/09 01:13:59;;;;;;;;;;;;;;;7.07;79.20;97640.84;4972257;28;20548;-76
2022/04/09 01:16:28;;;;;;;4.72;2.80;;;;;;;6.96;78.34;97643.66;4971480;28;19918;-76
2022/04/09 01:18:59;;;;;;;3.83;2.50;;;;;;;6.78;78.65;97636.31;4971270;28;20088;-76
2022/04/09 01:21:26;;;;;;;3.78;3.00;;;;;;;6.66;79.65;97646.91;4971819;28;20149;-76
2022/04/09 01:23:56;;;;;;;3.88;2.50;;;;;;;6.61;79.77;97645.25;4953054;29;20070;-76
2022/04/09 01:26:21;;;;;;;;;;;;;;;6.73;80.10;97644.13;4970459;28;20405;-76
2022/04/09 01:28:49;;;;;;;4.93;2.70;;;;;;;6.61;78.64;97628.97;4956094;28;19920;-76
2022/04/09 01:31:16;;;;;;;3.95;2.50;;;;;;;6.65;78.46;97637.47;4956275;28;20105;-76
2022/04/09 01:33:42;;;;;;;2.90;2.50;;;;;;;6.48;78.61;97612.91;4971988;28;20117;-76
2022/04/09 01:36:09;;;;;;;4.45;2.95;;;;;;;6.57;78.42;97633.31;4945446;29;20047;-76
2022/04/09 01:38:35;;;;;;;3.97;2.72;;;;;;;6.50;78.79;97628.31;4971772;28;20371;-75
2022/04/09 01:41:02;;;;;;;3.97;2.92;;;;;;;6.48;79.09;97628.34;4955776;28;20502;-75
2022/04/09 01:43:31;;;;;;;3.83;2.83;;;;;;;6.46;79.47;97630.13;4971842;28;20030;-76
2022/04/09 01:45:56;;;;;;;4.72;2.90;;;;;;;6.44;79.50;97636.16;4971860;28;20053;-76
2022/04/09 01:48:22;;;;;;;3.45;2.47;;;;;;;6.34;79.69;97632.94;4971500;28;20118;-76
2022/04/09 01:50:50;;;;;;;5.40;2.88;;;;;;;6.28;79.47;97641.63;4971700;28;20050;-76
2022/04/09 01:53:16;;;;;;;3.78;2.70;;;;;;;6.15;79.71;97636.75;4955764;28;20062;-76
2022/04/09 01:55:46;;;;;;;6.00;2.75;;;;;;;6.20;80.97;97643.50;4972912;28;20097;-76
2022/04/09 01:58:12;;;;;;;4.28;2.90;;;;;;;6.20;80.43;97652.97;4952498;28;20045;-75
2022/04/09 02:00:41;;;;;;;4.38;2.85;;;;;;;6.22;81.21;97654.59;4971657;28;20108;-75
2022/04/09 02:03:07;;;;;;;3.58;3.13;;;;;;;6.20;80.27;97658.09;4971520;28;20039;-76
2022/04/09 02:05:34;;;;;;;;;;;;;;;6.30;80.76;97657.88;4974778;28;20042;-75
2022/04/09 02:08:00;;;;;;;5.47;3.20;;;;;;;6.17;79.51;97645.28;4975248;28;20012;-76
2022/04/09 02:10:30;;;;;;;4.25;3.33;;;;;;;6.17;80.19;97637.56;4959326;28;20041;-74
2022/04/09 02:12:58;;;;;;;3.60;3.00;;;;;;;6.36;79.92;97649.19;4941065;28;20070;-76
2022/04/09 02:15:24;;;;;;;4.70;3.05;;;;;;;6.40;80.19;97645.69;4970098;28;20039;-76
2022/04/09 02:17:50;;;;;;;4.10;2.90;;;;;;;6.40;80.10;97661.13;4974932;28;20187;-76
2022/04/09 02:20:15;;;;;;;3.33;2.78;;;;;;;6.42;80.55;97661.13;4976294;28;20066;-76
2022/04/09 02:22:45;;;;;;;3.95;2.92;;;;;;;6.38;79.88;97655.19;4976039;28;20042;-76
2022/04/09 02:25:15;;;;;;;4.20;2.90;;;;;;;6.40;80.07;97655.13;4955842;28;20050;-76
2022/04/09 02:27:41;;;;;;;6.07;2.90;;;;;;;6.38;80.18;97668.06;4972574;28;20039;-76
2022/04/09 02:30:08;;;;;;;3.40;2.63;;;;;;;6.26;79.83;97673.44;4958769;28;20027;-76
2022/04/09 02:32:48;;;;;;;3.72;3.10;;;;;;;6.20;80.53;97684.69;4958958;28;20050;-75
2022/04/09 02:35:19;;;;;;;4.82;3.08;;;;;;;6.06;80.69;97664.34;4955918;28;20068;-76
2022/04/09 02:37:45;;;;;;;4.30;3.20;;;;;;;6.16;80.80;97670.19;4958348;28;20050;-76
2022/04/09 02:40:11;;;;;;;5.50;3.28;;;;;;;6.19;81.45;97666.72;4974929;28;20031;-76
2022/04/09 02:42:37;;;;;;;;;;;;;;;6.27;81.12;97677.69;4959161;28;20038;-76
2022/04/09 02:45:07;;;;;;;5.43;2.88;;;;;;;6.30;80.41;97675.91;4975870;28;19921;-77
2022/04/09 02:47:37;;;;;;;4.13;3.20;;;;;;;6.32;80.76;97687.06;4958688;28;20139;-78
2022/04/09 02:50:07;;;;;;;4.15;3.20;;;;;;;6.30;80.11;97693.09;4974391;28;20045;-76
2022/04/09 02:52:34;;;;;;;4.20;3.33;;;;;;;6.31;80.85;97695.63;4974386;28;20053;-75
2022/04/09 02:55:01;;;;;;;3.08;2.55;;;;;;;6.39;80.67;97692.91;4950485;28;20268;-76
2022/04/09 02:57:28;;;;;;;8.05;3.33;;;;;;;6.40;79.99;97684.31;4942449;29;20047;-76
2022/04/09 02:59:53;;;;;;;4.30;3.20;;;;;;;6.38;80.17;97686.09;4950688;28;20027;-76
2022/04/09 03:02:19;;;;;;;7.82;3.30;;;;;;;6.40;79.83;97694.63;4974242;28;20051;-75
2022/04/09 03:04:45;;;;;;;4.78;3.30;;;;;;;6.39;80.06;97705.81;4958198;28;20089;-75
2022/04/09 03:07:11;;;;;;;5.38;3.20;;;;;;;6.36;80.42;97713.56;4975611;28;20043;-75
2022/04/09 03:09:37;;;;;;;6.00;3.22;;;;;;;6.44;80.39;97724.59;4974511;28;20030;-75
2022/04/09 03:12:04;;;;;;;4.38;2.83;;;;;;;6.49;79.59;97739.97;4974609;28;20063;-78
2022/04/09 03:14:30;;;;;;;5.93;3.38;;;;;;;6.46;78.75;97742.56;4973983;28;20042;-77
2022/04/09 03:16:56;;;;;;;4.15;3.40;;;;;;;6.62;79.11;97749.16;4958184;28;20501;-77
2022/04/09 03:19:22;;;;;;;4.20;2.70;;;;;;;6.71;78.49;97761.03;4975330;28;20055;-77
2022/04/09 03:21:49;;;;;;;5.82;3.50;;;;;;;6.58;78.16;97748.34;4974186;28;20062;-76
2022/04/09 03:24:15;;;;;;;6.00;3.30;;;;;;;6.62;78.42;97765.47;4941964;28;20509;-76
2022/04/09 03:26:43;;;;;;;3.78;3.25;;;;;;;6.68;78.83;97789.41;4973646;28;20078;-76
2022/04/09 03:29:09;;;;;;;5.28;3.17;;;;;;;6.79;78.47;97779.75;4973952;28;20031;-76
2022/04/09 03:31:35;;;;;;;4.00;3.22;;;;;;;6.80;77.78;97789.19;4954552;28;20051;-76
2022/04/09 03:34:03;;;;;;;3.75;2.85;;;;;;;6.78;77.77;97796.97;4958070;28;20030;-76
2022/04/09 03:36:30;;;;;;;5.90;3.05;;;;;;;6.79;78.19;97801.22;4938266;29;20043;-76
2022/04/09 03:38:56;;;;;;;4.18;3.10;;;;;;;6.72;77.62;97806.50;4973864;28;20030;-76
2022/04/09 03:41:24;;;;;;;4.63;3.20;;;;;;;6.65;78.06;97807.53;4973557;28;20043;-77
2022/04/09 03:43:55;;;;;;;5.63;3.20;;;;;;;6.50;78.78;97799.16;4973652;28;20046;-77
2022/04/09 03:46:21;;;;;;;5.25;2.78;;;;;;;6.59;79.21;97823.91;4973509;28;20568;-75
2022/04/09 03:48:46;;;;;;;4.00;3.20;;;;;;;6.50;79.24;97827.50;4973907;28;20121;-76
2022/04/09 03:51:14;;;;;;;5.57;3.05;;;;;;;6.55;78.89;97841.19;4957051;28;20194;-76
2022/04/09 03:53:42;;;;;;;4.40;3.50;;;;;;;6.50;78.25;97842.09;4973291;28;20040;-76
2022/04/09 03:56:08;;;;;;;;;;;;;;;6.45;78.92;97844.75;4958023;28;20046;-76
2022/04/09 03:58:39;;;;;;;5.28;3.40;;;;;;;6.44;78.92;97853.38;4955811;28;19959;-75
2022/04/09 04:01:07;;;;;;;4.32;3.65;;;;;;;6.46;79.18;97840.47;4973450;28;20050;-76
2022/04/09 04:03:35;;;;;;;7.10;3.72;;;;;;;6.42;79.14;97841.41;4973491;28;20601;-75
2022/04/09 04:06:01;;;;;;;5.85;3.08;;;;;;;6.32;80.08;97827.81;4950816;28;20387;-76
2022/04/09 04:08:27;;;;;;;;;;;;;;;6.40;79.80;97841.41;4957287;28;20043;-75
2022/04/09 04:10:53;;;;;;;4.15;3.22;;;;;;;6.32;79.94;97849.28;4974411;28;20424;-76
2022/04/09 04:13:33;;;;;;;5.60;3.20;;;;;;;6.34;78.88;97849.25;4958892;28;20046;-76
2022/04/09 04:16:03;;;;;;;5.28;3.47;;;;;;;6.35;78.94;97858.66;4973013;28;20152;-75
2022/04/09 04:18:31;;;;;;;3.28;2.90;;;;;;;6.37;79.12;97846.63;4957365;28;20117;-76
2022/04/09 04:20:59;;;;;;;3.78;3.05;;;;;;;6.51;79.24;97860.13;4938571;28;20106;-76
2022/04/09 04:23:24;;;;;;;6.82;3.67;;;;;;;6.42;78.57;97854.28;4969067;28;20050;-78
2022/04/09 04:25:52;;;;;;;5.95;3.05;;;;;;;6.33;77.65;97850.97;4970968;28;20042;-75
2022/04/09 04:28:18;;;;;;;4.47;2.67;;;;;;;6.42;77.93;97880.03;4953415;28;20039;-76
2022/04/09 04:30:45;;;;;;;3.95;3.25;;;;;;;6.51;78.08;97898.78;4953959;28;20541;-75
2022/04/09 04:33:10;;;;;;;;;;;;;;;6.58;78.57;97892.63;4973451;28;20042;-76
2022/04/09 04:35:54;;;;;;;5.35;2.83;;;;;;;6.50;77.67;97888.47;4972878;28;20012;-76
2022/04/09 04:38:23;;;;;;;3.88;2.75;;;;;;;6.45;77.59;97895.44;4973113;28;20121;-78
2022/04/09 04:40:51;;;;;;;4.15;3.00;;;;;;;6.35;77.66;97898.16;4972992;28;20502;-76
2022/04/09 04:43:17;;;;;;;3.70;3.10;;;;;;;6.36;78.97;97896.41;4940643;28;20097;-75
2022/04/09 04:45:43;;;;;;;4.43;3.20;;;;;;;6.22;78.71;97870.88;4974417;28;20454;-75
2022/04/09 04:48:13;;;;;;;4.95;2.95;;;;;;;6.38;79.23;97899.84;4952065;28;20050;-76
2022/04/09 04:50:39;;;;;;;5.07;3.40;;;;;;;6.37;78.90;97900.72;4971404;28;20035;-76
2022/04/09 04:53:09;;;;;;;4.35;3.03;;;;;;;6.33;78.60;97887.03;4976371;28;20058;-77
2022/04/09 04:55:39;;;;;;;4.93;3.30;;;;;;;6.25;78.88;97883.72;4986324;28;20030;-77
2022/04/09 04:58:07;;;;;;;5.72;3.13;;;;;;;6.37;78.41;97908.44;4988972;28;20042;-76
2022/04/09 05:00:40;;;;;;;4.18;3.25;;;;;;;6.24;78.31;97881.19;4957899;28;20077;-76
2022/04/09 05:03:11;;;;;;;4.00;3.08;;;;;;;6.39;78.33;97919.56;4957100;28;20533;-76
2022/04/09 05:05:48;;;;;;;4.45;3.58;;;;;;;6.40;78.13;97918.69;4972760;28;20038;-76
2022/04/09 05:08:14;;;;;;;5.25;3.20;;;;;;;6.47;77.53;97935.75;4956986;28;20038;-76
2022/04/09 05:10:40;;;;;;;4.50;3.10;;;;;;;6.46;76.90;97938.34;4956843;28;20046;-77
2022/04/09 05:13:07;;;;;;;5.18;3.10;;;;;;;6.44;77.91;97940.09;4956611;28;20073;-77
2022/04/09 05:15:35;;;;;;;5.50;3.15;;;;;;;6.22;77.73;97934.41;4972570;28;20035;-78
2022/04/09 05:18:01;;;;;;;;;;;;;;;6.27;78.52;97945.47;4973023;28;20050;-78
2022/04/09 05:20:27;;;;;;;4.85;3.50;;;;;;;6.04;77.48;97930.34;4972941;28;19977;-75
2022/04/09 05:22:56;;;;;;;5.55;3.47;;;;;;;6.14;77.61;97954.25;4969267;28;20042;-80
2022/04/09 05:25:22;;;;;;;4.75;3.47;;;;;;;6.17;78.67;97957.63;4948997;28;20031;-77
2022/04/09 05:27:52;;;;;;;4.78;2.90;;;;;;;6.27;78.24;97961.78;4972009;28;20461;-77
2022/04/09 05:30:34;;;;;;;5.75;3.00;;;;;;;6.39;77.30;97973.66;4971654;28;20030;-76
2022/04/09 05:33:02;;;;;;;4.57;3.53;;;;;;;6.43;78.09;97980.47;4971469;28;20129;-76
2022/04/09 05:35:28;;;;;;;5.43;3.25;;;;;;;6.47;77.58;97976.97;4955672;28;20520;-78
2022/04/09 05:37:55;;;;;;;4.38;3.25;;;;;;;6.45;76.43;97970.13;4971747;28;20046;-78
2022/04/09 05:40:24;;;;;;;4.20;3.28;;;;;;;6.36;76.45;97964.22;4957678;28;20401;-78
2022/04/09 05:42:53;;;;;;;4.50;3.38;;;;;;;6.36;75.95;97987.41;4975446;28;20042;-77
2022/04/09 05:45:19;;;;;;;;;;;;;;;6.36;76.22;97996.84;4960368;28;20081;-77
2022/04/09 05:47:47;;;;;;;3.60;2.83;;;;;;;6.31;75.73;97983.19;4995918;28;19972;-78
2022/04/09 05:50:17;;;;;;;4.97;3.45;;;;;;;6.18;76.01;97974.78;4959342;28;20463;-77
2022/04/09 05:52:43;;;;;;;5.20;3.38;;;;;;;6.17;76.30;97988.53;4959918;28;20046;-76
2022/04/09 05:55:11;;;;;;;4.80;3.60;;;;;;;5.90;77.08;97976.84;4975971;28;20030;-77
2022/04/09 05:57:38;;;;;;;4.70;3.10;;;;;;;5.95;77.45;98010.25;4960052;28;20090;-78
2022/04/09 06:00:07;;;;;;;4.53;3.70;;;;;;;5.93;78.07;98018.03;4959784;28;20035;-76
2022/04/09 06:02:41;;;;;;;4.85;3.47;;;;;;;5.95;78.34;97998.25;4977478;28;20125;-77
2022/04/09 06:05:13;;;;;;;3.60;2.88;;;;;;;6.20;77.08;98034.84;4958754;28;20042;-77
2022/04/09 06:07:42;;;;;;;4.18;2.78;;;;;;;6.25;77.42;98027.91;4957206;28;20042;-74
2022/04/09 06:10:10;;;;;;;5.97;3.30;;;;;;;6.33;76.66;98027.81;4959122;28;20043;-77
2022/04/09 06:12:37;;;;;;;4.00;3.30;;;;;;;6.29;76.18;98023.59;4959569;28;20093;-77
2022/04/09 06:15:10;;;;;;;4.05;2.72;;;;;;;6.35;75.69;98037.22;4957750;28;20047;-77
2022/04/09 06:17:41;;;;;;;3.95;2.90;;;;;;;6.37;75.55;98032.06;4959361;28;20596;-78
2022/04/09 06:20:07;;;;;;;5.03;3.20;;;;;;;6.43;76.20;98039.69;4959193;28;20421;-78
2022/04/09 06:22:33;;;;;;;;;;;;;;;6.39;74.92;98034.59;4959104;28;20485;-77
2022/04/09 06:24:59;;;;;;;3.42;2.50;;;;;;;6.38;75.10;98033.75;4991696;28;19924;-79
2022/04/09 06:27:25;;;;;;;3.50;2.72;;;;;;;6.40;74.71;98034.56;4941606;28;20094;-78
2022/04/09 06:29:52;;;;;;;3.65;2.60;;;;;;;6.30;74.88;98051.03;4956261;28;20038;-78
2022/04/09 06:32:19;;;;;;;3.72;2.70;;;;;;;6.17;76.35;98023.72;4971697;28;20070;-77
2022/04/09 06:34:45;;;;;;;4.35;2.60;;;;;;;6.23;76.69;98011.66;4971943;28;20043;-77
2022/04/09 06:37:18;;;;;;;3.78;2.92;;;;;;;6.40;75.10;98050.03;4932726;29;20038;-78
2022/04/09 06:39:43;;;;;;;5.28;2.85;;;;;;;6.21;75.96;98022.81;4958582;28;20113;-80
2022/04/09 06:42:09;;;;;;;3.30;2.40;;;;;;;6.35;76.87;98032.06;4940188;29;20038;-77
2022/04/09 06:44:54;;;;;;;3.88;2.83;;;;;;;6.75;76.34;98059.00;4956472;28;20109;-79
2022/04/09 06:47:23;;;;;;;3.78;2.67;;;;;;;6.77;73.73;98041.78;4975212;28;20085;-77
2022/04/09 06:50:00;;;;;;;4.63;2.40;;;;;;;6.82;72.79;98086.38;4960572;28;20081;-79
2022/04/09 06:52:34;;;;;;;3.60;2.60;;;;;;;6.80;73.03;98072.69;4961635;28;20497;-77
2022/04/09 06:55:09;;;;;;;4.95;2.35;;;;;;;6.66;73.06;98075.44;4941505;28;20093;-78
2022/04/09 06:57:36;;;;;;;4.15;2.70;;;;;;;6.66;73.21;98082.34;4974741;28;20416;-78
2022/04/09 07:00:04;;;;;;;4.25;3.17;;;;;;;6.71;73.83;98098.56;4975027;28;20030;-78
2022/04/09 07:02:34;;;;;;;3.60;2.67;;;;;;;6.74;74.40;98098.56;4974855;28;20503;-77
2022/04/09 07:04:59;;;;;;;3.00;2.45;;;;;;;6.68;74.46;98090.88;4974703;28;20053;-78
2022/04/09 07:07:26;;;;;;;4.32;2.67;;;;;;;6.64;74.78;98102.94;4957279;28;20035;-79
2022/04/09 07:10:02;;;;;;;3.63;2.30;;;;;;;6.89;74.39;98118.94;4966637;28;20097;-78
2022/04/09 07:12:28;;;;;;;4.88;2.72;;;;;;;6.98;73.05;98110.22;4955691;28;20062;-78
2022/04/09 07:14:54;;;;;;;3.30;2.10;;;;;;;6.99;72.39;98097.31;4954978;29;20414;-78
2022/04/09 07:17:20;;;;;;;3.53;2.42;;;;;;;7.13;72.00;98128.03;4971386;28;20509;-76
2022/04/09 07:19:46;;;;;;;4.90;2.78;;;;;;;7.22;72.96;98143.38;4973998;28;20057;-77
2022/04/09 07:22:12;;;;;;;4.28;2.28;;;;;;;7.26;71.97;98145.03;4974316;28;20046;-77
2022/04/09 07:24:38;;;;;;;3.72;2.60;;;;;;;7.31;71.98;98152.72;4974455;28;20053;-77
2022/04/09 07:27:04;;;;;;;5.82;2.28;;;;;;;7.36;72.53;98151.75;4971815;28;20043;-76
2022/04/09 07:29:29;;;;;;;4.30;2.58;;;;;;;7.37;71.80;98152.59;4958291;28;20418;-78
2022/04/09 07:31:55;;;;;;;3.42;2.53;;;;;;;7.36;72.09;98167.22;4975877;28;20045;-77
2022/04/09 07:34:21;;;;;;;3.40;2.63;;;;;;;7.20;72.30;98157.19;4974491;28;20050;-77
2022/04/09 07:36:47;;;;;;;3.15;2.20;;;;;;;7.43;73.87;98162.84;4975041;28;20078;-77
2022/04/09 07:39:13;;;;;;;2.42;1.50;;;;;;;7.71;72.61;98159.81;4975301;28;20407;-78
2022/04/09 07:41:38;;;;;;;2.97;2.30;;;;;;;7.97;71.60;98162.81;4973831;28;20053;-77
2022/04/09 07:44:04;;;;;;;3.25;1.85;;;;;;;8.19;71.75;98168.44;4958218;28;20105;-77
2022/04/09 07:46:30;;;;;;;3.90;2.17;;;;;;;8.53;69.62;98160.09;4975956;28;20125;-78
2022/04/09 07:48:56;;;;;;;3.50;2.17;;;;;;;8.68;69.88;98153.75;4975249;28;20170;-78
2022/04/09 07:51:21;;;;;;;3.42;2.20;;;;;;;8.56;68.48;98140.16;4975300;28;20043;-77
2022/04/09 07:53:47;;;;;;;5.93;2.10;;;;;;;8.41;70.09;98114.66;4974886;28;20046;-78
2022/04/09 07:56:13;;;;;;;3.08;1.90;;;;;;;8.42;68.09;98149.94;4954795;29;20046;-78
2022/04/09 07:58:38;;;;;;;2.92;2.00;;;;;;;8.24;69.02;98121.84;4972265;28;20034;-77
2022/04/09 08:01:04;;;;;;;2.65;1.90;;;;;;;8.46;69.90;98146.41;4973788;28;20047;-78
2022/04/09 08:03:29;;;;;;;;;;;;;;;8.65;69.86;98150.31;4973575;28;20043;-78
2022/04/09 08:05:55;;;;;;;3.50;2.00;;;;;;;9.07;69.88;98152.91;4999620;28;19937;-77
2022/04/09 08:08:21;;;;;;;3.72;2.30;;;;;;;9.41;69.65;98144.34;4951245;28;20505;-77
2022/04/09 08:10:46;;;;;;;3.42;2.03;;;;;;;9.53;69.06;98144.06;4954209;28;20039;-77
2022/04/09 08:13:13;;;;;;;;;;;;;;;9.66;65.18;98153.22;4966631;28;20109;-76
2022/04/09 08:15:39;;;;;;;3.42;2.10;;;;;;;9.74;65.90;98145.28;4974822;28;19925;-77
2022/04/09 08:18:05;;;;;;;4.30;1.90;;;;;;;9.88;65.74;98148.34;4974502;28;20059;-76
2022/04/09 08:20:32;;;;;;;2.72;1.75;;;;;;;10.43;65.13;98152.09;4973933;28;20145;-76
2022/04/09 08:22:59;;;;;;;4.47;1.75;;;;;;;10.72;64.09;98144.41;4969534;28;20129;-78
2022/04/09 08:25:25;;;;;;;3.53;1.55;;;;;;;11.00;62.44;98132.34;4973345;28;20042;-77
2022/04/09 08:27:52;;;;;;;;;;;;;;;11.18;61.48;98134.38;4973675;28;20050;-77
2022/04/09 08:30:18;;;;;;;;;;;;;;;11.17;58.41;98140.44;4974508;28;19968;-77
2022/04/09 08:32:44;;;;;;;2.38;1.50;;;;;;;11.12;59.93;98131.09;5004055;28;20393;-78
2022/04/09 08:35:09;;;;;;;;;;;;;;;11.31;58.26;98137.41;4954296;28;20031;-78
2022/04/09 08:37:36;;;;;;;3.13;1.73;;;;;;;11.24;61.46;98119.50;4967607;28;20282;-78
2022/04/09 08:40:02;;;;;;;4.03;1.73;;;;;;;11.26;60.16;98115.09;4974549;28;20065;-78
2022/04/09 08:42:28;;;;;;;5.57;1.92;;;;;;;11.37;61.23;98115.63;4961915;28;20043;-78
2022/04/09 08:44:54;;;;;;;;;;;;;;;11.56;60.79;98134.88;4954409;29;20054;-78
2022/04/09 08:47:19;;;;;;;2.90;1.90;;;;;;;11.23;59.91;98116.06;4962784;28;19918;-77
2022/04/09 08:49:47;;;;;;;3.58;1.77;;;;;;;11.41;62.86;98144.03;4939451;28;20518;-77
2022/04/09 08:52:12;;;;;;;3.22;1.95;;;;;;;11.31;62.72;98133.97;4972966;28;20077;-78
2022/04/09 08:54:38;;;;;;;;;;;;;;;11.22;58.74;98142.03;4957059;28;20065;-79
2022/04/09 08:57:04;;;;;;;2.60;1.73;;;;;;;11.47;62.62;98136.94;4991181;28;19921;-79
2022/04/09 08:59:30;;;;;;;6.05;1.95;;;;;;;11.40;59.02;98136.25;4972603;28;20033;-78
2022/04/09 09:01:55;;;;;;;;;;;;;;;11.65;57.44;98144.97;4954492;28;20508;-77
2022/04/09 09:04:21;;;;;;;5.45;2.20;;;;;;;11.62;58.38;98113.91;4973804;28;19953;-79
2022/04/09 09:06:46;;;;;;;;;;;;;;;12.14;56.86;98145.97;4974496;28;20038;-76
2022/04/09 09:09:29;;;;;;;5.68;1.70;;;;;;;12.33;59.75;98127.13;4972399;28;20377;-76
2022/04/09 09:11:56;;;;;;;3.10;1.58;;;;;;;12.29;58.63;98117.75;4972640;28;20089;-77
2022/04/09 09:14:25;;;;;;;2.78;1.48;;;;;;;12.28;55.08;98132.50;4956386;28;20106;-78
2022/04/09 09:16:52;;;;;;;2.25;1.50;;;;;;;12.33;60.12;98125.38;4972512;28;20050;-78
2022/04/09 09:19:17;;;;;;;;;;;;;;;12.29;56.38;98134.19;4940846;29;20399;-78
2022/04/09 09:21:55;;;;;;;3.58;2.35;;;;;;;12.38;60.57;98133.00;4965291;28;19969;-78
2022/04/09 09:24:22;;;;;;;3.85;2.00;;;;;;;12.33;60.19;98148.78;4973847;28;20043;-78
2022/04/09 09:26:56;;;;;;;3.42;2.30;;;;;;;12.47;61.32;98150.88;4943923;29;20039;-77
2022/04/09 09:29:26;;;;;;;6.82;1.90;;;;;;;12.47;60.38;98143.09;4956640;28;20121;-78
2022/04/09 09:31:52;;;;;;;3.58;1.80;;;;;;;12.42;59.89;98137.19;4972540;28;20097;-80
2022/04/09 09:34:21;;;;;;;;;;;;;;;12.32;59.24;98138.41;4973963;28;20383;-78
2022/04/09 09:36:48;;;;;;;5.78;1.95;;;;;;;12.25;59.64;98148.19;4980337;28;19918;-77
2022/04/09 09:39:15;;;;;;;4.32;2.13;;;;;;;12.24;59.55;98135.25;4966926;28;20038;-77
2022/04/09 09:41:47;;;;;;;3.47;1.80;;;;;;;12.29;61.29;98133.34;4956697;28;20138;-78
2022/04/09 09:44:13;;;;;;;5.57;1.75;;;;;;;12.35;60.28;98128.75;4972673;28;20388;-78
2022/04/09 09:46:39;;;;;;;;;;;;;;;12.48;57.43;98144.78;4972819;28;20066;-80
2022/04/09 09:49:04;;;;;;;3.33;1.75;;;;;;;12.42;58.62;98135.44;4969606;28;19918;-78
2022/04/09 09:51:30;;;;;;;;;;;;;;;12.29;54.63;98136.78;4970637;28;20050;-79
2022/04/09 09:54:06;;;;;;;3.50;1.70;;;;;;;12.37;59.15;98133.88;4979673;28;19918;-77
2022/04/09 09:56:41;;;;;;;6.13;1.80;;;;;;;12.14;57.00;98109.59;4970690;28;20050;-78
2022/04/09 09:59:07;;;;;;;3.40;1.60;;;;;;;12.25;58.16;98126.53;4953736;28;20123;-77
2022/04/09 10:01:40;;;;;;;3.72;1.50;;;;;;;12.36;58.08;98127.00;4967059;28;20035;-80
2022/04/09 10:04:07;;;;;;;5.70;2.10;;;;;;;12.03;55.36;98093.50;4972055;28;20035;-78
2022/04/09 10:06:34;;;;;;;8.30;1.70;;;;;;;12.23;56.47;98133.53;4953992;28;20041;-78
2022/04/09 10:09:00;;;;;;;3.17;1.58;;;;;;;12.23;56.37;98139.56;4972313;28;20437;-78
2022/04/09 10:11:27;;;;;;;2.53;1.40;;;;;;;12.24;58.05;98151.69;4927672;29;20410;-79
2022/04/09 10:13:55;;;;;;;6.25;1.65;;;;;;;12.02;56.29;98161.97;4972114;28;20042;-77
2022/04/09 10:16:21;;;;;;;3.63;1.50;;;;;;;11.95;55.83;98124.09;4973762;28;20047;-79
2022/04/09 10:18:47;;;;;;;2.45;1.50;;;;;;;12.18;58.14;98157.09;4937902;28;20054;-78
2022/04/09 10:21:13;;;;;;;;;;;;;;;12.29;55.17;98160.19;4973986;28;20046;-77
2022/04/09 10:23:39;;;;;;;7.25;2.63;;;;;;;12.25;55.13;98122.19;4969031;28;19925;-78
2022/04/09 10:26:04;;;;;;;;;;;;;;;12.51;50.58;98160.28;4969752;28;20041;-77
2022/04/09 10:28:36;;;;;;;3.50;2.05;;;;;;;12.88;54.82;98161.53;4982521;28;19918;-79
2022/04/09 10:31:02;;;;;;;3.08;1.67;;;;;;;12.98;55.55;98136.84;4972100;28;20058;-78
2022/04/09 10:33:28;;;;;;;;;;;;;;;13.09;52.60;98147.69;4976035;28;20035;-78
2022/04/09 10:36:02;;;;;;;4.90;1.73;;;;;;;13.04;52.01;98134.00;4975426;28;20016;-77
2022/04/09 10:38:28;;;;;;;6.68;1.60;;;;;;;13.01;53.14;98144.53;4975521;28;20505;-77
2022/04/09 10:40:55;;;;;;;;;;;;;;;12.95;51.69;98142.16;4976002;28;20138;-78
2022/04/09 10:43:23;;;;;;;3.70;1.90;;;;;;;12.81;54.41;98152.25;4976933;28;19973;-79
2022/04/09 10:46:05;;;;;;;3.85;2.53;;;;;;;13.02;54.94;98148.84;4959167;28;20034;-78
2022/04/09 10:48:37;;;;;;;6.00;2.63;;;;;;;13.22;53.98;98125.50;4976314;28;20039;-79
2022/04/09 10:51:11;;;;;;;6.90;2.88;;;;;;;13.66;51.25;98120.28;4975464;28;20051;-81
2022/04/09 10:53:41;;;;;;;5.90;2.72;;;;;;;14.13;54.20;98114.81;4942138;28;20461;-78
2022/04/09 10:56:31;;;;;;;4.95;2.30;;;;;;;14.48;50.41;98159.44;4950851;28;20055;-77
2022/04/09 10:59:06;;;;;;;3.70;2.10;;;;;;;14.48;52.24;98122.91;4948564;28;20080;-77
2022/04/09 11:01:48;;;;;;;4.70;1.90;;;;;;;14.64;52.99;98146.53;4957355;28;20043;-83
2022/04/09 11:04:32;;;;;;;3.30;2.13;;;;;;;14.47;49.49;98142.03;4974970;28;20740;-79
2022/04/09 11:07:23;;;;;;;8.52;2.85;;;;;;;14.46;52.74;98140.34;4975266;28;20413;-77
2022/04/09 11:09:59;;;;;;;4.30;1.90;;;;;;;14.24;53.14;98149.09;4976102;28;20517;-81
2022/04/09 11:12:26;;;;;;;3.75;2.05;;;;;;;14.09;54.80;98141.94;4975217;28;20046;-78
2022/04/09 11:14:59;;;;;;;6.75;1.77;;;;;;;13.91;55.39;98143.56;4955909;28;20486;-80
2022/04/09 11:17:32;;;;;;;3.10;1.90;;;;;;;13.88;54.12;98148.03;4970502;28;20039;-78
2022/04/09 11:20:02;;;;;;;3.05;1.55;;;;;;;13.70;54.45;98154.88;4966835;28;20177;-77
2022/04/09 11:22:37;;;;;;;2.92;1.63;;;;;;;13.36;54.39;98139.75;4975433;28;20051;-77
2022/04/09 11:25:22;;;;;;;4.50;2.20;;;;;;;13.08;54.94;98146.00;4959699;28;20105;-78
2022/04/09 11:27:49;;;;;;;3.60;1.67;;;;;;;12.80;55.30;98127.13;4944195;28;20510;-78
2022/04/09 11:30:14;;;;;;;5.28;1.80;;;;;;;12.88;55.69;98157.19;4940169;29;20033;-77
2022/04/09 11:32:40;;;;;;;6.68;2.05;;;;;;;12.67;53.77;98156.19;4943294;28;20046;-81
2022/04/09 11:35:08;;;;;;;;;;;;;;;12.63;53.03;98159.81;4959294;28;20074;-79
2022/04/09 11:37:41;;;;;;;2.40;1.60;;;;;;;12.36;53.70;98155.59;4975729;28;19921;-78
2022/04/09 11:40:07;;;;;;;5.20;1.80;;;;;;;12.27;53.80;98146.38;4974255;28;20057;-79
2022/04/09 11:42:50;;;;;;;4.78;1.70;;;;;;;12.31;55.97;98144.53;4938762;29;20273;-78
2022/04/09 11:45:23;;;;;;;4.85;1.80;;;;;;;12.29;56.23;98160.19;4946757;28;20049;-77
2022/04/09 11:47:50;;;;;;;5.35;1.98;;;;;;;12.25;55.91;98169.00;4974975;28;20052;-77
2022/04/09 11:50:16;;;;;;;6.75;1.92;;;;;;;12.25;55.96;98149.94;4957804;28;20026;-77